Terminal Aerodrome Forecast
Issued by NWS Louisville, KY

Home | Current Version | Previous Version | Text Only | Print | Product List | Glossary On
Versions: 1 2 3 4 5 6 7 8 9 10 11 12 13 14 15
000
FTUS43 KLMK 201729
TAFSDF
TAF
KSDF 201729Z 2018/2124 16008KT P6SM BKN050
     FM210100 VRB04KT P6SM VCSH BKN027
     FM210500 33005KT 5SM BR OVC018
     FM211000 36007KT P6SM OVC011
     FM211600 01008KT P6SM BKN025
     FM211800 02008KT P6SM OVC150=

USA.gov is the U.S. government's official web portal to all federal, state and local government web resources and services.